Terminal Aerodrome Forecast
Issued by NWS Charleston, WV

Current Version | Previous Version | Graphics & Text | Print | Product List | Glossary On
Versions: 1 2 3 4 5 6 7 8 9 10 11 12 13 14 15 16 17 18 19 20 21 22 23 24 25 26 27
000
FTUS41 KRLX 192302 AAC
TAFPKB
TAF AMD
KPKB 192302Z 1923/2018 27007KT P6SM VCTS SCT045CB
     FM200100 VRB03KT P6SM SCT040
     FM200600 00000KT 5SM BR FEW150
     FM200900 00000KT 1/4SM FG VV001
     FM201200 00000KT 2SM BR BKN001
     FM201300 00000KT P6SM BKN250=

USA.gov is the U.S. government's official web portal to all federal, state and local government web resources and services.